Aérodrome :
LOGIN :

S'inscrire | Disclaimer

   EN    FR    IT 

 










Légende :    VFR   VFR Marginal   IFR   IFR Intensif   IFR Très Intensif
Visi : 
Plafond : 
>= 8 km
>= 3000ft
5 à 8 km
1000 à 3000 ft
1500m à 5 km
500 à 1000 ft
800 à 1500m
200 à 500 ft
< 800m
< 200 ft
Symboles :   Orages  Brouillard  Fortes neiges  Fortes précipitations  Vent > 20 kt
SIGMETs :   Divers  Orages  Givrage  Turbulence  Onde Orograph.  Cendres Volcan.







- Altitude de l'aérodrome : 681 ft
- Code IATA : LBA
- Voir les cartes d'approche


EGNM - Leeds Bradford

DERNIER METAR :
  • 280650Z 06011KT 020V100 3000 -RADZ BR SCT001 BKN002 10/10 Q1002

METARs EXPIRÉS :
  • 280620Z 06010KT 3000 -RADZ BR SCT001 BKN002 10/10 Q1002
  • 280550Z 06010KT 040V110 5000 -RADZ BR SCT001 BKN002 10/10 Q1002
  • 280520Z 07008KT 010V110 3500 -RADZ BR SCT002 BKN003 10/// Q1002
  • 280450Z 06006KT 360V110 1500 -RADZ BR SCT001 BKN002 10/// Q1002
  • 280420Z 07009KT 010V110 3000 DZ BR SCT001 BKN002 10/// Q1002

TAF AMD TAF EGNM
Valide du 28 à 06h jusqu'au 29 à 06h UTC


280614Z 2806/2906 07009KT 5000 RA BR BKN002
PROB40 2806/2808 1500 BKN006
BECMG 2808/2810 01010KT 9999 NSW BKN015
TEMPO 2810/2903 02015G27KT 7000 RA BKN008
PROB40 2903/2906 0200 FG BKN001
ATIS : +44 113 250 9696 (x2489)
Pas de NOTAMs connus pour ce terrain.
1 SIGMET publié pour la FIR London (EGTT) :
 
Orages noyés dans la masse
EGTT SIGMET 01 VALID 280600/280800 EGRR
EGTT LONDON FIR EMBD TS OBS WI N5255 E00110 - N5348 E00110 - N5349 E00356 - N5255 E00309 - N5255 E00110 TOP FL370 MOV NNW 15KT NC=



MET'MAP, la Météo Aéronautique d'un coup d'oeil ! - Copyright ORBIFLY Décembre 2007 - Disclaimer

ORBIFLY MET'MAP TEAM :

Programmation & Développement : Alexandra Zaïnal
Conception & Développement : Baudouin d'Aumeries
Co-Programmation & Développement : Marc-Olivier Méhu
Soutien technique & logistique : Manuel Goepfert

Contact : metmap@orbifly.com




SOURCES & CREDITS :

   NOAA